createdAt,value
2022-09-23T00:00:45.997Z,26.17
2022-09-23T00:01:50.197Z,28.08
2022-09-23T00:02:52.455Z,26.02
2022-09-23T00:03:56.540Z,31.02
2022-09-23T00:05:00.014Z,26.13
2022-09-23T00:06:05.523Z,29.70
2022-09-23T00:07:09.815Z,27.15
2022-09-23T00:08:14.595Z,28.02
2022-09-23T00:09:17.572Z,29.00
2022-09-23T00:10:19.741Z,28.20
2022-09-23T00:11:27.606Z,29.58
2022-09-23T00:12:29.656Z,26.73
2022-09-23T00:13:31.778Z,30.65
2022-09-23T00:14:33.852Z,25.73
2022-09-23T00:15:39.731Z,30.45
2022-09-23T00:16:42.567Z,27.90
2022-09-23T00:17:45.555Z,28.95
2022-09-23T00:18:50.658Z,27.85
2022-09-23T00:19:54.351Z,28.23
2022-09-23T00:20:56.394Z,27.17
2022-09-23T00:22:01.201Z,30.13
2022-09-23T00:23:08.071Z,25.63
2022-09-23T00:24:11.070Z,29.98
2022-09-23T00:25:13.216Z,27.45
2022-09-23T00:26:21.009Z,27.55
2022-09-23T00:27:23.223Z,26.25
2022-09-23T00:28:25.776Z,26.90
2022-09-23T00:29:28.845Z,28.95
2022-09-23T00:30:32.662Z,30.63
2022-09-23T00:31:37.331Z,32.63
2022-09-23T00:32:40.369Z,29.92
2022-09-23T00:33:43.899Z,30.60
2022-09-23T00:34:45.940Z,30.80
2022-09-23T00:35:52.036Z,33.42
2022-09-23T00:36:54.050Z,30.88
2022-09-23T00:37:56.314Z,33.95
2022-09-23T00:38:59.654Z,32.42
2022-09-23T00:40:04.962Z,31.60
2022-09-23T00:41:08.096Z,35.70
2022-09-23T00:42:18.919Z,32.83
2022-09-23T00:43:20.927Z,33.60
2022-09-23T00:44:43.445Z,37.10
2022-09-23T00:45:52.087Z,36.30
2022-09-23T00:46:54.561Z,29.23
2022-09-23T00:48:06.609Z,32.80
2022-09-23T00:49:29.609Z,31.08
2022-09-23T00:50:36.981Z,32.35
2022-09-23T00:51:48.925Z,34.45
2022-09-23T00:52:54.711Z,32.83
2022-09-23T00:53:58.075Z,30.88
2022-09-23T00:55:08.805Z,30.42
2022-09-23T00:56:12.138Z,27.98
2022-09-23T00:57:17.745Z,30.83
2022-09-23T00:58:27.811Z,30.92
2022-09-23T00:59:30.283Z,34.10
2022-09-23T01:00:34.045Z,33.83
2022-09-23T01:01:43.447Z,37.13
2022-09-23T01:02:49.328Z,37.03
2022-09-23T01:03:54.685Z,37.92
2022-09-23T01:04:56.764Z,36.88
2022-09-23T01:06:03.948Z,37.17
2022-09-23T01:07:08.681Z,36.40
2022-09-23T01:08:13.052Z,30.55
2022-09-23T01:09:16.543Z,31.85
2022-09-23T01:10:20.962Z,31.10
2022-09-23T01:11:50.942Z,29.63
2022-09-23T01:13:13.559Z,29.83
2022-09-23T01:14:34.757Z,29.92
2022-09-23T01:16:14.597Z,30.83
2022-09-23T01:17:42.019Z,30.05
2022-09-23T01:19:20.173Z,30.45
2022-09-23T01:20:59.600Z,26.95
2022-09-23T01:22:22.109Z,28.45
2022-09-23T01:23:45.602Z,25.50
2022-09-23T01:24:53.197Z,26.63
2022-09-23T01:26:16.912Z,26.08
2022-09-23T01:28:02.738Z,25.42
2022-09-23T01:29:28.743Z,24.95
2022-09-23T01:31:01.878Z,26.10
2022-09-23T01:32:47.313Z,25.42
2022-09-23T01:33:59.203Z,28.38
2022-09-23T01:35:04.272Z,23.08
2022-09-23T01:36:25.885Z,31.27
2022-09-23T01:37:28.820Z,28.92
2022-09-23T01:38:36.587Z,22.65
2022-09-23T01:40:04.437Z,24.17
2022-09-23T01:41:16.562Z,24.60
2022-09-23T01:42:31.426Z,24.95
2022-09-23T01:43:52.396Z,24.10
2022-09-23T01:45:09.204Z,22.48
2022-09-23T01:46:26.264Z,23.38
2022-09-23T01:47:35.128Z,25.10
2022-09-23T01:48:43.655Z,25.85
2022-09-23T01:49:54.481Z,22.05
2022-09-23T01:51:09.451Z,26.40
2022-09-23T01:52:41.233Z,23.13
2022-09-23T01:54:24.577Z,22.73
2022-09-23T01:55:35.625Z,24.40
2022-09-23T01:57:07.361Z,25.23
2022-09-23T01:58:26.003Z,22.40
2022-09-23T01:59:35.707Z,24.10
2022-09-23T02:00:43.960Z,26.85
2022-09-23T02:02:16.267Z,26.15
2022-09-23T02:03:26.335Z,25.13
2022-09-23T02:04:39.942Z,29.15
2022-09-23T02:05:51.144Z,24.52
2022-09-23T02:06:59.932Z,24.75
2022-09-23T02:08:14.855Z,24.83
2022-09-23T02:09:27.078Z,26.27
2022-09-23T02:10:56.846Z,22.63
2022-09-23T02:12:06.361Z,23.45
2022-09-23T02:13:32.765Z,29.00
2022-09-23T02:15:01.303Z,25.92
2022-09-23T02:16:20.036Z,25.23
2022-09-23T02:17:37.287Z,27.58
2022-09-23T02:19:11.777Z,23.88
2022-09-23T02:20:24.460Z,24.75
2022-09-23T02:21:35.163Z,23.85
2022-09-23T02:22:43.614Z,23.83
2022-09-23T02:23:52.398Z,25.88
2022-09-23T02:24:57.601Z,26.30
2022-09-23T02:26:20.303Z,25.48
2022-09-23T02:27:51.758Z,25.75
2022-09-23T02:29:19.455Z,24.35
2022-09-23T02:30:28.379Z,23.20
2022-09-23T02:31:34.317Z,22.55
2022-09-23T02:32:49.152Z,26.40
2022-09-23T02:34:09.654Z,22.83
2022-09-23T02:35:26.933Z,21.23
2022-09-23T02:36:40.095Z,26.25
2022-09-23T02:38:14.753Z,24.70
2022-09-23T02:39:20.917Z,24.42
2022-09-23T02:40:26.097Z,24.88
2022-09-23T02:41:34.273Z,28.05
2022-09-23T02:43:03.027Z,25.20
2022-09-23T02:44:07.913Z,26.30
2022-09-23T02:45:10.541Z,22.75
2022-09-23T02:46:13.649Z,23.45
2022-09-23T02:47:20.823Z,25.77
2022-09-23T02:48:34.784Z,24.73
2022-09-23T02:49:37.014Z,21.20
2022-09-23T02:50:41.528Z,22.17
2022-09-23T02:52:55.164Z,23.52
2022-09-23T02:53:39.864Z,22.60
2022-09-23T02:54:43.747Z,22.27
2022-09-23T02:55:46.323Z,26.88
2022-09-23T02:56:50.923Z,23.27
2022-09-23T02:57:53.635Z,26.42
2022-09-23T02:58:56.025Z,23.65
2022-09-23T02:59:58.665Z,23.73
2022-09-23T03:01:08.395Z,25.17
2022-09-23T03:02:36.348Z,21.23
2022-09-23T03:03:49.899Z,22.30
2022-09-23T03:05:30.588Z,19.98
2022-09-23T03:06:44.659Z,16.73
2022-09-23T03:07:58.919Z,22.08
2022-09-23T03:09:19.118Z,18.60
2022-09-23T03:10:44.020Z,18.73
2022-09-23T03:11:53.431Z,20.05
2022-09-23T03:13:05.835Z,18.00
2022-09-23T03:14:24.297Z,17.95
2022-09-23T03:15:52.009Z,17.48
2022-09-23T03:17:07.107Z,17.77
2022-09-23T03:18:45.932Z,16.48
2022-09-23T03:20:01.969Z,15.07
2022-09-23T03:21:14.829Z,17.33
2022-09-23T03:22:28.279Z,17.92
2022-09-23T03:23:38.386Z,18.05
2022-09-23T03:24:45.503Z,18.13
2022-09-23T03:25:52.540Z,14.55
2022-09-23T03:26:56.274Z,18.23
2022-09-23T03:28:01.440Z,18.10
2022-09-23T03:29:09.521Z,15.52
2022-09-23T03:30:13.319Z,15.18
2022-09-23T03:31:16.557Z,15.85
2022-09-23T03:32:23.664Z,16.38
2022-09-23T03:33:46.725Z,15.75
2022-09-23T03:35:01.298Z,16.15
2022-09-23T03:36:28.139Z,14.95
2022-09-23T03:37:33.394Z,17.33
2022-09-23T03:38:40.341Z,15.55
2022-09-23T03:39:48.065Z,18.00
2022-09-23T03:40:54.383Z,17.90
2022-09-23T03:42:01.897Z,19.58
2022-09-23T03:43:05.286Z,17.63
2022-09-23T03:44:09.907Z,15.57
2022-09-23T03:45:18.599Z,18.48
2022-09-23T03:46:20.731Z,15.05
2022-09-23T03:47:25.342Z,19.90
2022-09-23T03:48:27.584Z,14.32
2022-09-23T03:49:35.374Z,15.35
2022-09-23T03:50:39.943Z,16.05
2022-09-23T03:51:44.705Z,16.90
2022-09-23T03:52:49.058Z,17.60
2022-09-23T03:53:52.872Z,16.83
2022-09-23T03:54:54.995Z,14.95
2022-09-23T03:55:57.422Z,17.15
2022-09-23T03:57:00.945Z,17.75
2022-09-23T03:58:03.488Z,15.43
2022-09-23T03:59:05.868Z,16.10
2022-09-23T04:00:08.466Z,14.70
2022-09-23T04:01:14.919Z,15.75
2022-09-23T04:02:17.923Z,17.35
2022-09-23T04:03:19.913Z,14.55
2022-09-23T04:04:22.432Z,15.88
2022-09-23T04:05:24.477Z,14.52
2022-09-23T04:06:26.462Z,14.75
2022-09-23T04:07:28.428Z,14.40
2022-09-23T04:08:31.490Z,13.68
2022-09-23T04:09:34.955Z,15.35
2022-09-23T04:10:41.286Z,17.15
2022-09-23T04:11:43.427Z,18.92
2022-09-23T04:12:46.503Z,14.57
2022-09-23T04:13:50.675Z,15.13
2022-09-23T04:14:52.777Z,15.75
2022-09-23T04:15:54.865Z,16.02
2022-09-23T04:16:57.665Z,13.43
2022-09-23T04:18:03.269Z,17.08
2022-09-23T04:19:05.337Z,15.07
2022-09-23T04:20:09.124Z,15.02
2022-09-23T04:21:11.565Z,13.95
2022-09-23T04:22:14.188Z,16.65
2022-09-23T04:23:16.562Z,17.02
2022-09-23T04:24:18.803Z,14.82
2022-09-23T04:25:21.397Z,14.00
2022-09-23T04:26:26.054Z,14.68
2022-09-23T04:27:28.101Z,15.48
2022-09-23T04:28:30.133Z,14.30
2022-09-23T04:29:32.237Z,15.90
2022-09-23T04:30:34.314Z,17.65
2022-09-23T04:31:36.906Z,16.40
2022-09-23T04:32:39.463Z,16.40
2022-09-23T04:33:41.501Z,14.82
2022-09-23T04:34:44.165Z,14.68
2022-09-23T04:35:52.972Z,14.88
2022-09-23T04:37:57.406Z,14.15
2022-09-23T04:38:59.702Z,15.30
2022-09-23T04:40:03.419Z,14.20
2022-09-23T04:41:09.802Z,14.82
2022-09-23T04:42:12.312Z,16.45
2022-09-23T04:43:16.454Z,14.55
2022-09-23T04:44:19.092Z,13.77
2022-09-23T04:45:21.171Z,15.65
2022-09-23T04:46:23.746Z,16.67
2022-09-23T04:47:26.239Z,14.85
2022-09-23T04:48:29.587Z,17.20
2022-09-23T04:49:32.699Z,15.70
2022-09-23T04:50:34.632Z,14.32
2022-09-23T04:51:36.618Z,14.07
2022-09-23T04:52:38.587Z,14.00
2022-09-23T04:53:42.899Z,16.77
2022-09-23T04:54:44.895Z,13.27
2022-09-23T04:55:47.515Z,13.50
2022-09-23T04:56:49.632Z,12.60
2022-09-23T04:57:52.014Z,14.15
2022-09-23T04:58:54.489Z,11.70
2022-09-23T04:59:59.582Z,14.40
2022-09-23T05:01:15.187Z,13.48
2022-09-23T05:02:19.900Z,11.73
2022-09-23T05:03:24.931Z,13.80
2022-09-23T05:04:27.511Z,12.90
2022-09-23T05:05:31.108Z,14.13
2022-09-23T05:06:35.597Z,13.20
2022-09-23T05:07:37.701Z,14.23
2022-09-23T05:08:40.679Z,14.27
2022-09-23T05:09:42.641Z,16.50
2022-09-23T05:10:44.607Z,18.10
2022-09-23T05:11:46.827Z,19.00
2022-09-23T05:12:52.448Z,17.13
2022-09-23T05:13:58.487Z,16.08
2022-09-23T05:15:00.812Z,14.32
2022-09-23T05:16:06.308Z,13.25
2022-09-23T05:17:08.859Z,15.20
2022-09-23T05:18:10.856Z,13.27
2022-09-23T05:19:13.777Z,13.77
2022-09-23T05:20:18.579Z,11.85
2022-09-23T05:21:24.049Z,12.95
2022-09-23T05:22:26.952Z,13.93
2022-09-23T05:23:32.120Z,14.85
2022-09-23T05:24:34.190Z,12.65
2022-09-23T05:25:38.341Z,15.20
2022-09-23T05:26:40.853Z,15.27
2022-09-23T05:27:43.910Z,14.30
2022-09-23T05:28:46.906Z,17.45
2022-09-23T05:29:50.055Z,13.60
2022-09-23T05:30:52.259Z,14.68
2022-09-23T05:31:54.406Z,11.07
2022-09-23T05:33:04.520Z,15.13
2022-09-23T05:34:07.040Z,13.23
2022-09-23T05:35:09.202Z,12.73
2022-09-23T05:36:12.216Z,12.57
2022-09-23T05:37:14.377Z,11.15
2022-09-23T05:38:16.914Z,11.43
2022-09-23T05:39:19.324Z,12.80
2022-09-23T05:40:23.781Z,14.77
2022-09-23T05:41:26.958Z,11.77
2022-09-23T05:42:29.298Z,10.45
2022-09-23T05:43:33.660Z,15.25
2022-09-23T05:44:35.925Z,12.95
2022-09-23T05:45:37.898Z,12.60
2022-09-23T05:46:41.381Z,12.50
2022-09-23T05:47:44.154Z,10.10
2022-09-23T05:48:48.751Z,13.68
2022-09-23T05:49:59.707Z,12.00
2022-09-23T05:51:03.624Z,12.27
2022-09-23T05:52:05.623Z,14.68
2022-09-23T05:53:07.843Z,14.05
2022-09-23T05:54:10.082Z,14.23
2022-09-23T05:55:14.528Z,13.50
2022-09-23T05:56:19.654Z,16.25
2022-09-23T05:57:22.074Z,11.98
2022-09-23T05:58:24.811Z,12.35
2022-09-23T05:59:29.835Z,14.77
2022-09-23T06:00:31.988Z,13.02
2022-09-23T06:01:36.846Z,12.75
2022-09-23T06:02:39.143Z,13.75
2022-09-23T06:03:41.579Z,14.27
2022-09-23T06:04:44.012Z,12.48
2022-09-23T06:05:47.080Z,12.93
2022-09-23T06:06:51.162Z,16.02
2022-09-23T06:07:53.524Z,14.88
2022-09-23T06:08:55.616Z,12.73
2022-09-23T06:09:57.903Z,13.32
2022-09-23T06:11:07.306Z,16.38
2022-09-23T06:12:09.654Z,15.43
2022-09-23T06:13:13.189Z,12.85
2022-09-23T06:14:17.615Z,16.85
2022-09-23T06:15:19.813Z,14.43
2022-09-23T06:16:21.901Z,15.80
2022-09-23T06:17:24.262Z,13.63
2022-09-23T06:18:26.555Z,14.20
2022-09-23T06:19:53.623Z,13.38
2022-09-23T06:20:55.617Z,14.05
2022-09-23T06:21:58.206Z,19.23
2022-09-23T06:23:10.531Z,14.35
2022-09-23T06:24:17.820Z,16.02
2022-09-23T06:25:23.310Z,11.30
2022-09-23T06:26:25.589Z,13.90
2022-09-23T06:27:30.437Z,13.30
2022-09-23T06:28:34.342Z,13.55
2022-09-23T06:29:36.452Z,11.32
2022-09-23T06:30:40.063Z,15.60
2022-09-23T06:31:43.929Z,14.00
2022-09-23T06:32:52.277Z,14.52
2022-09-23T06:34:04.996Z,13.75
2022-09-23T06:35:24.812Z,11.93
2022-09-23T06:36:40.577Z,13.65
2022-09-23T06:37:45.259Z,16.15
2022-09-23T06:38:49.549Z,13.35
2022-09-23T06:39:52.154Z,13.25
2022-09-23T06:40:56.089Z,14.30
2022-09-23T06:41:58.089Z,17.83
2022-09-23T06:43:03.169Z,14.93
2022-09-23T06:44:06.286Z,11.98
2022-09-23T06:45:13.463Z,16.33
2022-09-23T06:46:17.562Z,15.55
2022-09-23T06:47:19.977Z,11.35
2022-09-23T06:48:24.266Z,11.75
2022-09-23T06:49:27.527Z,16.17
2022-09-23T06:50:29.801Z,12.98
2022-09-23T06:51:32.304Z,14.55
2022-09-23T06:52:36.847Z,12.02
2022-09-23T06:53:39.548Z,10.93
2022-09-23T06:54:41.541Z,12.90
2022-09-23T06:55:44.213Z,11.55
2022-09-23T06:56:48.687Z,12.57
2022-09-23T06:57:51.217Z,12.32
2022-09-23T06:58:53.629Z,14.93
2022-09-23T06:59:56.052Z,12.48
2022-09-23T07:01:07.331Z,13.27
2022-09-23T07:02:09.852Z,12.10
2022-09-23T07:03:12.351Z,12.27
2022-09-23T07:04:14.826Z,10.25
2022-09-23T07:05:17.444Z,11.90
2022-09-23T07:06:19.578Z,11.73
2022-09-23T07:07:21.601Z,12.95
2022-09-23T07:08:25.142Z,11.23
2022-09-23T07:09:28.404Z,10.30
2022-09-23T07:10:32.461Z,10.50
2022-09-23T07:11:35.325Z,12.13
2022-09-23T07:12:43.982Z,12.15
2022-09-23T07:13:56.759Z,10.57
2022-09-23T07:14:59.535Z,11.00
2022-09-23T07:16:04.667Z,11.38
2022-09-23T07:17:08.049Z,14.52
2022-09-23T07:18:10.384Z,11.82
2022-09-23T07:19:12.961Z,15.00
2022-09-23T07:21:40.980Z,11.00
2022-09-23T07:24:01.027Z,11.30
2022-09-23T07:25:07.745Z,12.75
2022-09-23T07:26:13.749Z,9.80
2022-09-23T07:27:23.065Z,14.18
2022-09-23T07:28:30.578Z,9.32
2022-09-23T07:29:46.524Z,11.57
2022-09-23T07:31:00.119Z,11.55
2022-09-23T07:32:13.778Z,14.93
2022-09-23T07:33:31.029Z,10.85
2022-09-23T07:34:34.954Z,11.50
2022-09-23T07:35:41.338Z,9.30
2022-09-23T07:36:44.801Z,10.68
2022-09-23T07:37:48.391Z,9.98
2022-09-23T07:38:51.691Z,11.50
2022-09-23T07:39:56.282Z,12.43
2022-09-23T07:41:08.571Z,11.50
2022-09-23T07:42:17.155Z,10.30
2022-09-23T07:43:22.663Z,9.63
2022-09-23T07:44:26.396Z,9.95
2022-09-23T07:45:30.000Z,11.02
2022-09-23T07:47:55.661Z,9.35
2022-09-23T07:50:08.415Z,9.35
2022-09-23T07:51:33.381Z,8.52
2022-09-23T07:53:59.074Z,8.68
2022-09-23T07:55:20.248Z,10.93
2022-09-23T07:56:28.887Z,13.23
2022-09-23T07:57:36.640Z,10.13
2022-09-23T07:58:42.303Z,9.77
2022-09-23T07:59:45.648Z,13.98
2022-09-23T08:02:09.600Z,10.45
2022-09-23T08:03:12.361Z,8.65
2022-09-23T08:05:51.744Z,8.98
2022-09-23T08:07:00.993Z,9.40
2022-09-23T08:08:08.068Z,12.73
2022-09-23T08:09:15.060Z,10.60
2022-09-23T08:10:21.520Z,12.45
2022-09-23T08:11:25.683Z,11.93
2022-09-23T08:12:37.101Z,12.90
2022-09-23T08:13:46.867Z,12.07
2022-09-23T08:14:51.035Z,14.57
2022-09-23T08:15:55.674Z,11.43
2022-09-23T08:17:01.243Z,10.35
2022-09-23T08:18:03.860Z,12.38
2022-09-23T08:19:08.447Z,10.35
2022-09-23T08:20:32.922Z,12.45
2022-09-23T08:21:41.906Z,13.75
2022-09-23T08:22:44.707Z,11.02
2022-09-23T08:25:04.741Z,12.75
2022-09-23T08:26:18.051Z,13.18
2022-09-23T08:27:23.725Z,14.35
2022-09-23T08:28:26.597Z,11.85
2022-09-23T08:29:30.328Z,12.80
2022-09-23T08:30:34.382Z,13.27
2022-09-23T08:31:39.025Z,13.02
2022-09-23T08:32:44.787Z,15.38
2022-09-23T08:33:53.258Z,12.90
2022-09-23T08:34:57.596Z,15.50
2022-09-23T08:36:04.123Z,13.85
2022-09-23T08:37:18.093Z,14.30
2022-09-23T08:38:22.203Z,14.15
2022-09-23T08:39:27.152Z,13.85
2022-09-23T08:40:35.256Z,14.35
2022-09-23T08:42:08.365Z,12.80
2022-09-23T08:43:37.850Z,13.32
2022-09-23T08:44:51.110Z,13.82
2022-09-23T08:45:58.579Z,12.32
2022-09-23T08:47:20.976Z,13.02
2022-09-23T08:54:32.098Z,11.82
2022-09-23T08:55:46.842Z,10.68
2022-09-23T08:58:25.277Z,11.00
2022-09-23T08:59:50.935Z,11.85
2022-09-23T09:04:23.619Z,9.23
2022-09-23T09:05:38.279Z,10.27
2022-09-23T09:06:53.629Z,9.05
2022-09-23T09:08:03.513Z,10.18
2022-09-23T09:09:25.080Z,10.07
2022-09-23T09:10:43.429Z,9.68
2022-09-23T09:11:52.280Z,8.95
2022-09-23T09:13:07.860Z,8.85
2022-09-23T09:14:29.153Z,8.93
2022-09-23T09:15:38.031Z,10.18
2022-09-23T09:17:11.479Z,8.15
2022-09-23T09:18:22.626Z,8.48
2022-09-23T09:19:56.937Z,8.13
2022-09-23T09:21:15.841Z,8.65
2022-09-23T09:22:45.899Z,8.23
2022-09-23T09:24:03.565Z,7.82
2022-09-23T09:25:35.803Z,8.48
2022-09-23T09:26:42.650Z,8.73
2022-09-23T09:27:56.749Z,12.07
2022-09-23T09:30:48.643Z,9.75
2022-09-23T09:31:55.513Z,9.90
2022-09-23T09:33:27.644Z,9.48
2022-09-23T09:34:45.633Z,8.68
2022-09-23T09:36:09.741Z,10.73
2022-09-23T09:37:41.662Z,9.15
2022-09-23T09:38:48.720Z,9.30
2022-09-23T09:39:51.449Z,10.90
2022-09-23T09:40:56.959Z,9.73
2022-09-23T09:42:03.020Z,9.07
2022-09-23T09:43:07.915Z,9.68
2022-09-23T09:44:27.619Z,11.63
2022-09-23T09:45:58.045Z,8.13
2022-09-23T09:47:22.156Z,8.38
2022-09-23T09:48:55.092Z,7.93
2022-09-23T09:50:21.179Z,9.23
2022-09-23T09:51:25.973Z,9.20
2022-09-23T09:52:30.408Z,8.45
2022-09-23T09:54:53.483Z,6.85
2022-09-23T09:56:09.790Z,7.85
2022-09-23T09:57:33.687Z,9.05
2022-09-23T09:58:51.622Z,6.90
2022-09-23T09:59:54.729Z,7.90
2022-09-23T10:01:00.675Z,9.65
2022-09-23T10:02:31.291Z,7.93
2022-09-23T10:03:46.381Z,6.85
2022-09-23T10:05:01.506Z,7.20
2022-09-23T10:06:15.393Z,7.70
2022-09-23T10:07:26.999Z,8.57
2022-09-23T10:08:37.044Z,7.88
2022-09-23T10:11:19.770Z,8.02
2022-09-23T10:12:24.176Z,6.47
2022-09-23T10:13:29.955Z,8.70
2022-09-23T10:14:36.184Z,8.50
2022-09-23T10:15:45.558Z,9.18
2022-09-23T10:17:06.075Z,10.50
2022-09-23T10:18:30.705Z,7.00
2022-09-23T10:19:39.892Z,5.70
2022-09-23T10:20:43.673Z,5.93
2022-09-23T10:21:57.110Z,8.23
2022-09-23T10:23:07.379Z,8.52
2022-09-23T10:24:22.948Z,6.05
2022-09-23T10:25:26.880Z,7.13
2022-09-23T10:26:34.239Z,6.03
2022-09-23T10:27:37.782Z,6.43
2022-09-23T10:29:01.683Z,7.72
2022-09-23T10:30:07.788Z,7.25
2022-09-23T10:31:14.575Z,7.63
2022-09-23T10:32:31.276Z,7.10
2022-09-23T10:35:14.188Z,8.90
2022-09-23T10:36:19.325Z,9.85
2022-09-23T10:37:39.308Z,8.82
2022-09-23T10:38:42.363Z,10.00
2022-09-23T10:40:03.272Z,8.93
2022-09-23T10:41:36.973Z,9.35
2022-09-23T10:45:22.609Z,9.68
2022-09-23T10:46:39.245Z,8.43
2022-09-23T10:48:01.148Z,11.13
2022-09-23T10:49:26.675Z,9.00
2022-09-23T10:50:50.049Z,10.40
2022-09-23T10:52:15.995Z,11.20
2022-09-23T10:53:30.262Z,10.23
2022-09-23T10:54:46.062Z,11.02
2022-09-23T10:56:09.816Z,11.65
2022-09-23T10:57:47.168Z,9.90
2022-09-23T10:59:15.479Z,12.88
2022-09-23T11:00:58.987Z,10.55
2022-09-23T11:04:18.291Z,10.32
2022-09-23T11:05:58.344Z,9.93
2022-09-23T11:08:37.616Z,9.95
2022-09-23T11:09:53.809Z,12.07
2022-09-23T11:12:51.419Z,10.25
2022-09-23T11:14:01.922Z,8.32
2022-09-23T11:17:10.844Z,13.73
2022-09-23T11:19:02.689Z,10.75
2022-09-23T11:20:42.349Z,9.38
2022-09-23T11:22:24.155Z,10.73
2022-09-23T11:24:09.523Z,10.88
2022-09-23T11:25:37.346Z,10.27
2022-09-23T11:26:58.006Z,10.98
2022-09-23T11:28:31.899Z,8.15
2022-09-23T11:31:44.189Z,9.30
2022-09-23T11:33:17.989Z,8.57
2022-09-23T11:35:05.500Z,8.75
2022-09-23T11:36:25.756Z,8.65
2022-09-23T11:37:43.455Z,8.15
2022-09-23T11:38:51.398Z,9.13
2022-09-23T11:40:04.481Z,8.07
2022-09-23T11:41:24.699Z,8.25
2022-09-23T11:42:41.410Z,9.43
2022-09-23T11:44:05.010Z,8.45
2022-09-23T11:48:46.744Z,9.95
2022-09-23T11:55:22.213Z,9.38
2022-09-23T11:58:01.878Z,9.40
2022-09-23T11:59:07.767Z,7.15
2022-09-23T12:00:24.945Z,9.80
2022-09-23T12:01:45.888Z,7.97
2022-09-23T12:03:42.368Z,7.50
2022-09-23T12:05:09.769Z,9.52
2022-09-23T12:08:07.822Z,8.77
2022-09-23T12:09:40.914Z,8.82
2022-09-23T12:10:57.870Z,8.32
2022-09-23T12:12:13.988Z,12.90
2022-09-23T12:13:28.543Z,7.05
2022-09-23T12:16:30.066Z,8.70
2022-09-23T12:18:04.806Z,7.55
2022-09-23T12:19:51.189Z,7.78
2022-09-23T12:21:48.824Z,9.75
2022-09-23T12:24:26.879Z,8.85
2022-09-23T12:25:46.895Z,7.80
2022-09-23T12:26:58.618Z,10.55
2022-09-23T12:28:33.889Z,9.45
2022-09-23T12:29:39.166Z,8.77
2022-09-23T12:30:44.484Z,8.35
2022-09-23T12:32:00.146Z,9.27
2022-09-23T12:33:27.362Z,11.32
2022-09-23T12:34:48.397Z,11.43
2022-09-23T12:35:56.588Z,11.93
2022-09-23T12:37:07.107Z,8.68
2022-09-23T12:39:47.765Z,8.00
2022-09-23T12:40:53.926Z,11.65
2022-09-23T12:42:04.902Z,7.82
2022-09-23T12:43:32.764Z,8.77
2022-09-23T12:44:48.485Z,8.30
2022-09-23T12:45:52.049Z,8.20
2022-09-23T12:47:31.718Z,9.95
2022-09-23T12:49:01.386Z,12.75
2022-09-23T12:54:15.050Z,11.27
2022-09-23T12:55:22.418Z,9.68
2022-09-23T12:56:28.755Z,8.98
2022-09-23T12:57:41.523Z,10.60
2022-09-23T12:58:44.706Z,10.30
2022-09-23T12:59:56.596Z,9.60
2022-09-23T13:01:19.508Z,11.48
2022-09-23T13:04:27.900Z,10.95
2022-09-23T13:05:50.174Z,8.63
2022-09-23T13:07:09.929Z,11.95
2022-09-23T13:09:42.771Z,10.48
2022-09-23T13:12:32.179Z,9.93
2022-09-23T13:13:49.130Z,9.15
2022-09-23T13:14:58.579Z,10.98
2022-09-23T13:16:27.121Z,12.43
2022-09-23T13:17:33.886Z,9.90
2022-09-23T13:19:31.681Z,9.93
2022-09-23T13:20:38.744Z,10.30
2022-09-23T13:21:47.767Z,11.10
2022-09-23T13:25:47.330Z,9.77
2022-09-23T13:26:55.226Z,12.02
2022-09-23T13:28:06.926Z,11.90
2022-09-23T13:30:37.933Z,11.63
2022-09-23T13:33:16.147Z,10.63
2022-09-23T13:34:24.281Z,9.43
2022-09-23T13:36:51.418Z,9.15
2022-09-23T13:37:58.369Z,11.43
2022-09-23T13:43:43.034Z,11.15
2022-09-23T13:44:46.715Z,9.68
2022-09-23T13:45:50.827Z,13.35
2022-09-23T13:49:42.386Z,13.15
2022-09-23T13:50:55.912Z,10.73
2022-09-23T13:52:00.833Z,12.65
2022-09-23T13:54:50.905Z,12.05
2022-09-23T13:58:54.825Z,11.57
2022-09-23T14:01:44.671Z,11.77
2022-09-23T14:02:53.565Z,12.02
2022-09-23T14:03:58.149Z,11.93
2022-09-23T14:06:44.651Z,11.68
2022-09-23T14:07:54.185Z,11.93
2022-09-23T14:13:03.372Z,12.82
2022-09-23T14:14:12.681Z,11.10
2022-09-23T14:20:28.802Z,10.93
2022-09-23T14:21:45.505Z,12.07
2022-09-23T14:28:04.093Z,10.95
2022-09-23T14:29:17.750Z,11.85
2022-09-23T14:34:51.408Z,11.73
2022-09-23T14:44:40.133Z,14.35
2022-09-23T14:47:36.506Z,10.85
2022-09-23T14:53:49.455Z,15.07
2022-09-23T14:56:26.391Z,11.68
2022-09-23T14:57:44.409Z,11.48
2022-09-23T15:03:26.653Z,11.30
2022-09-23T15:06:04.099Z,14.13
2022-09-23T15:10:13.349Z,11.45
2022-09-23T15:14:37.937Z,11.90
2022-09-23T15:19:19.183Z,13.70
2022-09-23T15:20:38.448Z,12.68
2022-09-23T15:21:53.607Z,11.93
2022-09-23T15:27:05.304Z,10.93
2022-09-23T15:29:40.855Z,13.23
2022-09-23T15:57:03.157Z,13.07
2022-09-23T16:23:23.534Z,13.55
2022-09-23T16:32:48.851Z,17.42
2022-09-23T16:35:31.345Z,12.23
2022-09-23T16:38:13.997Z,11.57
2022-09-23T16:43:28.402Z,17.67
2022-09-23T16:49:18.065Z,12.85
2022-09-23T16:54:25.958Z,15.80
2022-09-23T16:55:29.955Z,14.35
2022-09-23T17:01:42.069Z,13.82
2022-09-23T17:10:06.439Z,14.98
2022-09-23T17:11:32.182Z,11.82
2022-09-23T17:12:41.809Z,14.10
2022-09-23T17:20:32.184Z,14.18
2022-09-23T17:41:21.696Z,12.82
2022-09-23T17:47:04.317Z,11.85
2022-09-23T18:08:11.913Z,15.20
2022-09-23T18:09:17.956Z,13.57
2022-09-23T18:13:56.723Z,11.82
2022-09-23T18:39:24.932Z,13.40
2022-09-23T18:47:44.614Z,11.02
2022-09-23T18:57:39.388Z,12.35
2022-09-23T18:59:00.230Z,11.77
2022-09-23T19:12:23.421Z,15.80
2022-09-23T19:20:02.986Z,12.38
2022-09-23T19:22:56.395Z,12.20
2022-09-23T19:24:20.101Z,14.82
2022-09-23T19:27:27.863Z,11.73
2022-09-23T19:34:59.053Z,16.73
2022-09-23T19:36:22.213Z,11.32
2022-09-23T19:40:21.348Z,14.75
2022-09-23T20:20:09.406Z,12.98
2022-09-23T20:50:02.248Z,13.32
2022-09-23T20:52:20.644Z,16.98
2022-09-23T21:15:38.326Z,12.93
2022-09-23T21:21:40.893Z,12.95
2022-09-23T21:22:54.101Z,13.20
2022-09-23T21:24:17.319Z,16.30
2022-09-23T21:33:43.283Z,13.63
2022-09-23T21:36:16.268Z,14.70
2022-09-23T21:38:50.700Z,14.90
2022-09-23T21:49:50.978Z,18.10
2022-09-23T21:52:25.051Z,15.00
2022-09-23T22:00:25.762Z,17.70
2022-09-23T22:01:42.028Z,17.02
2022-09-23T22:02:52.748Z,15.98
2022-09-23T22:06:10.195Z,17.48
2022-09-23T22:09:11.413Z,14.98
2022-09-23T22:12:08.782Z,16.33
2022-09-23T22:15:48.993Z,16.75
2022-09-23T22:20:14.178Z,19.80
2022-09-23T22:21:34.610Z,18.85
2022-09-23T22:25:47.900Z,16.77
2022-09-23T22:28:39.941Z,16.98
2022-09-23T22:33:26.983Z,15.68
2022-09-23T22:40:25.476Z,16.83
2022-09-23T22:41:32.668Z,15.80
2022-09-23T22:44:13.425Z,14.15
2022-09-23T22:48:13.243Z,14.45
2022-09-23T22:52:44.935Z,15.80
2022-09-23T23:03:51.575Z,14.52
2022-09-23T23:07:41.831Z,14.27
2022-09-23T23:10:42.973Z,14.65
2022-09-23T23:14:27.418Z,12.07
2022-09-23T23:15:56.126Z,13.18
2022-09-23T23:18:19.248Z,13.98
2022-09-23T23:22:02.186Z,12.48
2022-09-23T23:23:08.033Z,12.13
2022-09-23T23:24:30.026Z,12.88
2022-09-23T23:25:32.657Z,13.07
2022-09-23T23:26:40.942Z,12.90
2022-09-23T23:27:52.592Z,14.45
2022-09-23T23:30:24.253Z,13.15
2022-09-23T23:31:37.934Z,14.85
2022-09-23T23:32:50.547Z,13.55
2022-09-23T23:33:53.976Z,14.15
2022-09-23T23:34:59.733Z,13.10
2022-09-23T23:36:04.372Z,12.30
2022-09-23T23:38:30.756Z,15.20
2022-09-23T23:39:38.836Z,12.45
2022-09-23T23:40:45.267Z,11.95
2022-09-23T23:41:49.433Z,13.02
2022-09-23T23:44:15.149Z,12.70
2022-09-23T23:45:25.726Z,11.55
2022-09-23T23:47:50.848Z,11.85
2022-09-23T23:50:27.340Z,11.35
2022-09-23T23:52:55.335Z,12.35
2022-09-23T23:54:05.388Z,12.60
2022-09-23T23:55:11.616Z,13.00
2022-09-23T23:56:30.599Z,12.00
